Time;durP1;ratioP1;P1;durP2;ratioP2;P2;SDS_P1;SDS_P2;PMS_P1;PMS_P2;Temp;Humidity;BMP_temperature;BMP_pressure;BME280_temperature;BME280_humidity;BME280_pressure;Samples;Min_cycle;Max_cycle;Signal;HPM_P1;HPM_P2
2022/01/20 00:02:17;;;;;;;8.18;0.98;;;;;;;;;;5027167;28;20036;-59
2022/01/20 00:05:03;;;;;;;13.02;1.13;;;;;;;;;;5031942;28;20033;-58
2022/01/20 00:07:43;;;;;;;14.93;1.58;;;;;;;;;;5045956;28;20033;-60
2022/01/20 00:26:55;;;;;;;9.45;2.15;;;;;;;;;;5044781;28;20506;-59
2022/01/20 00:29:33;;;;;;;4.18;0.68;;;;;;;;;;5028777;28;20066;-60
2022/01/20 00:32:18;;;;;;;17.00;1.23;;;;;;;;;;5045507;28;20146;-60
2022/01/20 00:35:08;;;;;;;10.20;1.67;;;;;;;;;;5046440;28;20044;-60
2022/01/20 00:37:34;;;;;;;12.90;0.95;;;;;;;;;;5031059;28;20851;-59
2022/01/20 00:39:59;;;;;;;5.47;0.90;;;;;;;;;;5031521;28;20086;-60
2022/01/20 00:42:25;;;;;;;6.45;1.15;;;;;;;;;;5046251;28;20119;-59
2022/01/20 00:44:50;;;;;;;11.32;1.20;;;;;;;;;;5026648;28;20094;-58
2022/01/20 00:47:17;;;;;;;7.57;1.35;;;;;;;;;;5044590;28;20043;-59
2022/01/20 00:49:43;;;;;;;6.65;0.75;;;;;;;;;;5045485;28;20028;-58
2022/01/20 00:52:09;;;;;;;12.02;1.70;;;;;;;;;;5028212;28;20025;-61
2022/01/20 00:54:37;;;;;;;8.63;1.00;;;;;;;;;;5047511;28;20035;-60
2022/01/20 00:57:03;;;;;;;13.90;1.85;;;;;;;;;;5048799;28;20116;-59
2022/01/20 00:59:31;;;;;;;22.73;1.30;;;;;;;;;;5048220;28;20029;-60
2022/01/20 01:02:00;;;;;;;14.50;1.80;;;;;;;;;;5017338;28;20044;-60
2022/01/20 01:04:28;;;;;;;9.30;1.05;;;;;;;;;;5030353;28;20024;-59
2022/01/20 01:09:40;;;;;;;5.63;1.43;;;;;;;;;;5048746;28;20032;-58
2022/01/20 01:12:10;;;;;;;0.52;0.28;;;;;;;;;;5046784;28;20034;-59
2022/01/20 01:14:43;;;;;;;11.20;0.82;;;;;;;;;;5048229;28;20086;-57
2022/01/20 01:22:23;;;;;;;6.30;0.93;;;;;;;;;;5029953;28;20036;-57
2022/01/20 01:24:54;;;;;;;9.85;1.08;;;;;;;;;;5017166;28;20277;-58
2022/01/20 01:27:23;;;;;;;6.07;0.68;;;;;;;;;;5030028;28;20036;-58
2022/01/20 01:35:04;;;;;;;5.95;0.68;;;;;;;;;;5028315;28;20033;-58
2022/01/20 01:43:36;;;;;;;11.80;0.98;;;;;;;;;;5047055;28;20027;-58
2022/01/20 01:46:02;;;;;;;15.52;2.15;;;;;;;;;;5048238;28;20043;-58
2022/01/20 01:48:31;;;;;;;12.57;1.13;;;;;;;;;;5031162;28;20062;-58
2022/01/20 01:50:56;;;;;;;7.97;1.38;;;;;;;;;;5044948;28;20036;-58
2022/01/20 01:53:27;;;;;;;9.02;1.23;;;;;;;;;;5012782;28;20050;-59
2022/01/20 01:55:57;;;;;;;12.52;1.25;;;;;;;;;;5027618;28;20380;-58
2022/01/20 01:58:25;;;;;;;8.27;1.80;;;;;;;;;;5032938;28;20150;-58
2022/01/20 02:00:52;;;;;;;13.75;2.30;;;;;;;;;;5047444;28;20024;-58
2022/01/20 02:03:18;;;;;;;14.85;1.50;;;;;;;;;;5027505;28;20028;-58
2022/01/20 02:06:13;;;;;;;16.73;1.65;;;;;;;;;;5048671;28;20368;-58
2022/01/20 02:19:28;;;;;;;7.55;1.10;;;;;;;;;;5047498;28;20044;-59
2022/01/20 02:22:01;;;;;;;7.72;1.20;;;;;;;;;;5026052;28;20033;-57
2022/01/20 02:24:27;;;;;;;12.80;1.83;;;;;;;;;;5037454;28;20717;-58
2022/01/20 02:26:53;;;;;;;6.88;1.45;;;;;;;;;;5047687;28;20024;-58
2022/01/20 02:29:20;;;;;;;8.85;1.42;;;;;;;;;;5046016;28;20056;-58
2022/01/20 02:31:58;;;;;;;20.77;2.20;;;;;;;;;;5028734;28;20051;-57
2022/01/20 02:34:29;;;;;;;12.30;1.45;;;;;;;;;;5029129;28;20658;-57
2022/01/20 02:36:56;;;;;;;16.75;1.70;;;;;;;;;;5029495;28;20616;-57
2022/01/20 02:39:41;;;;;;;15.68;1.98;;;;;;;;;;5044280;28;20017;-57
2022/01/20 02:45:16;;;;;;;15.18;1.92;;;;;;;;;;5027907;28;20193;-58
2022/01/20 02:47:42;;;;;;;23.58;1.88;;;;;;;;;;5012499;28;20028;-58
2022/01/20 02:50:12;;;;;;;16.23;3.42;;;;;;;;;;5046671;28;22124;-58
2022/01/20 02:52:43;;;;;;;10.82;2.03;;;;;;;;;;5030237;28;20111;-58
2022/01/20 02:55:11;;;;;;;17.30;3.40;;;;;;;;;;5045724;28;20032;-57
2022/01/20 02:57:38;;;;;;;29.38;2.97;;;;;;;;;;5004082;28;20020;-59
2022/01/20 03:00:05;;;;;;;14.00;2.00;;;;;;;;;;5011759;28;20108;-58
2022/01/20 03:02:31;;;;;;;20.95;2.05;;;;;;;;;;5045293;28;20032;-58
2022/01/20 03:05:01;;;;;;;10.10;2.00;;;;;;;;;;5044346;28;20047;-58
2022/01/20 03:07:27;;;;;;;16.25;2.22;;;;;;;;;;5044369;28;20047;-59
2022/01/20 03:09:55;;;;;;;13.13;2.53;;;;;;;;;;5032146;28;20033;-58
2022/01/20 03:12:23;;;;;;;17.80;1.58;;;;;;;;;;5025645;28;20825;-58
2022/01/20 03:14:51;;;;;;;19.90;2.78;;;;;;;;;;5037929;28;20159;-59
2022/01/20 03:17:18;;;;;;;21.05;2.63;;;;;;;;;;5046486;28;20025;-58
2022/01/20 03:19:44;;;;;;;15.30;2.13;;;;;;;;;;5032503;28;20120;-58
2022/01/20 03:22:14;;;;;;;18.05;3.50;;;;;;;;;;5032804;28;20150;-59
2022/01/20 03:24:45;;;;;;;18.73;3.40;;;;;;;;;;5021474;28;20036;-58
2022/01/20 03:27:10;;;;;;;23.95;2.47;;;;;;;;;;5026934;28;20057;-59
2022/01/20 03:29:36;;;;;;;10.85;1.95;;;;;;;;;;5027951;28;20350;-59
2022/01/20 03:32:04;;;;;;;13.35;2.22;;;;;;;;;;5029078;28;20041;-59
2022/01/20 03:34:32;;;;;;;15.45;1.40;;;;;;;;;;5027270;28;20035;-61
2022/01/20 03:37:00;;;;;;;13.45;1.88;;;;;;;;;;5044545;28;20034;-59
2022/01/20 03:39:25;;;;;;;18.83;1.77;;;;;;;;;;5022865;28;20351;-58
2022/01/20 03:41:51;;;;;;;22.15;1.73;;;;;;;;;;5030940;28;20048;-58
2022/01/20 03:44:19;;;;;;;20.23;2.20;;;;;;;;;;5011915;28;20032;-58
2022/01/20 03:46:47;;;;;;;7.65;1.38;;;;;;;;;;5005330;28;20188;-60
2022/01/20 03:52:07;;;;;;;24.53;3.43;;;;;;;;;;5022630;28;20049;-60
2022/01/20 03:54:35;;;;;;;8.00;1.88;;;;;;;;;;5026166;28;20043;-58
2022/01/20 03:57:03;;;;;;;11.65;1.63;;;;;;;;;;5045713;28;20033;-59
2022/01/20 03:59:28;;;;;;;13.10;2.83;;;;;;;;;;5015905;28;20029;-61
2022/01/20 04:01:58;;;;;;;10.55;1.83;;;;;;;;;;5013032;28;20118;-58
2022/01/20 04:04:24;;;;;;;11.30;1.58;;;;;;;;;;5009093;28;20550;-58
2022/01/20 04:06:49;;;;;;;11.20;1.73;;;;;;;;;;5027535;28;20028;-59
2022/01/20 04:09:17;;;;;;;14.40;2.63;;;;;;;;;;5014681;28;20032;-58
2022/01/20 04:11:45;;;;;;;12.73;1.65;;;;;;;;;;5036384;28;20472;-60
2022/01/20 04:14:15;;;;;;;12.55;1.63;;;;;;;;;;5037986;28;20558;-58
2022/01/20 04:19:23;;;;;;;20.55;1.80;;;;;;;;;;5044388;28;20380;-60
2022/01/20 04:21:51;;;;;;;13.73;1.65;;;;;;;;;;5045489;28;20027;-60
2022/01/20 04:24:17;;;;;;;4.25;1.23;;;;;;;;;;5047039;28;20089;-60
2022/01/20 04:30:18;;;;;;;14.55;1.83;;;;;;;;;;5049455;28;20074;-59
2022/01/20 04:32:49;;;;;;;6.95;1.27;;;;;;;;;;5047858;28;20040;-59
2022/01/20 04:35:20;;;;;;;17.88;1.88;;;;;;;;;;5023940;28;21877;-60
2022/01/20 04:37:50;;;;;;;9.68;2.33;;;;;;;;;;5046457;28;20108;-60
2022/01/20 04:40:16;;;;;;;16.30;1.63;;;;;;;;;;5040834;28;20027;-60
2022/01/20 04:42:47;;;;;;;11.55;1.67;;;;;;;;;;5030740;28;20037;-60
2022/01/20 04:45:20;;;;;;;10.95;1.55;;;;;;;;;;5030425;28;20040;-59
2022/01/20 04:48:12;;;;;;;11.88;1.48;;;;;;;;;;5049351;28;20038;-59
2022/01/20 04:58:57;;;;;;;6.72;1.42;;;;;;;;;;5029663;28;20047;-59
2022/01/20 05:01:23;;;;;;;22.55;2.00;;;;;;;;;;5048836;28;20037;-61
2022/01/20 05:03:51;;;;;;;4.28;1.58;;;;;;;;;;5031049;28;20510;-61
2022/01/20 05:06:20;;;;;;;2.40;0.73;;;;;;;;;;5050197;28;20059;-59
2022/01/20 05:08:53;;;;;;;2.40;0.85;;;;;;;;;;5047177;28;20036;-59
2022/01/20 05:11:18;;;;;;;4.70;0.88;;;;;;;;;;5008649;28;20135;-59
2022/01/20 05:13:49;;;;;;;7.28;0.85;;;;;;;;;;5015957;28;20464;-60
2022/01/20 05:16:19;;;;;;;12.32;1.02;;;;;;;;;;5046192;28;20619;-60
2022/01/20 05:18:47;;;;;;;3.88;1.13;;;;;;;;;;5024008;28;20049;-61
2022/01/20 05:21:12;;;;;;;7.72;0.75;;;;;;;;;;5030746;28;20024;-59
2022/01/20 05:23:40;;;;;;;12.50;1.30;;;;;;;;;;5041015;28;20060;-60
2022/01/20 05:26:05;;;;;;;3.88;1.30;;;;;;;;;;5033412;28;20039;-59
2022/01/20 05:28:33;;;;;;;4.18;0.80;;;;;;;;;;5023506;28;20036;-60
2022/01/20 05:30:59;;;;;;;7.35;1.20;;;;;;;;;;5048592;28;20114;-60
2022/01/20 05:33:27;;;;;;;8.55;1.30;;;;;;;;;;5048873;28;20024;-61
2022/01/20 05:35:55;;;;;;;15.35;1.65;;;;;;;;;;5026605;28;20028;-62
2022/01/20 05:38:21;;;;;;;12.23;1.65;;;;;;;;;;5032845;28;20602;-59
2022/01/20 05:40:48;;;;;;;7.95;2.20;;;;;;;;;;5051261;28;20082;-59
2022/01/20 05:43:18;;;;;;;16.50;1.80;;;;;;;;;;5018259;28;20033;-60
2022/01/20 05:45:44;;;;;;;14.13;1.77;;;;;;;;;;5032871;28;20117;-60
2022/01/20 05:48:17;;;;;;;13.65;1.92;;;;;;;;;;5027980;28;20394;-60
2022/01/20 05:50:45;;;;;;;12.20;1.55;;;;;;;;;;5044425;28;20148;-60
2022/01/20 05:53:12;;;;;;;14.02;2.20;;;;;;;;;;5037160;28;20073;-61
2022/01/20 05:55:38;;;;;;;10.93;2.13;;;;;;;;;;5047147;28;20891;-60
2022/01/20 05:58:07;;;;;;;9.93;1.75;;;;;;;;;;5014629;28;20538;-60
2022/01/20 06:00:36;;;;;;;14.27;1.83;;;;;;;;;;5047651;28;20125;-59
2022/01/20 06:05:49;;;;;;;13.73;1.73;;;;;;;;;;5046118;28;20036;-59
2022/01/20 06:08:14;;;;;;;13.40;1.58;;;;;;;;;;5030143;28;21853;-59
2022/01/20 06:10:40;;;;;;;5.57;1.38;;;;;;;;;;5017291;28;20044;-60
2022/01/20 06:13:11;;;;;;;21.23;2.00;;;;;;;;;;5033814;28;20600;-60
2022/01/20 06:15:39;;;;;;;19.38;2.08;;;;;;;;;;5049087;28;20036;-61
2022/01/20 06:18:09;;;;;;;12.55;2.75;;;;;;;;;;5047595;28;20064;-62
2022/01/20 06:20:35;;;;;;;9.40;2.38;;;;;;;;;;5021468;28;20037;-62
2022/01/20 06:23:00;;;;;;;19.00;2.15;;;;;;;;;;5046169;28;20069;-60
2022/01/20 06:25:27;;;;;;;7.40;1.60;;;;;;;;;;5030620;28;20476;-61
2022/01/20 06:27:52;;;;;;;7.22;1.63;;;;;;;;;;5046644;28;20027;-61
2022/01/20 06:30:25;;;;;;;15.80;1.73;;;;;;;;;;5022370;28;20129;-60
2022/01/20 06:32:53;;;;;;;16.38;1.92;;;;;;;;;;5029705;28;20032;-60
2022/01/20 06:35:19;;;;;;;18.63;2.63;;;;;;;;;;5038194;28;20406;-59
2022/01/20 06:37:47;;;;;;;13.65;1.65;;;;;;;;;;5047046;28;20048;-60
2022/01/20 06:40:17;;;;;;;9.48;1.33;;;;;;;;;;5030652;28;20032;-60
2022/01/20 06:42:45;;;;;;;12.88;1.63;;;;;;;;;;5046051;28;20114;-61
2022/01/20 06:45:12;;;;;;;3.50;0.90;;;;;;;;;;5028892;28;20830;-61
2022/01/20 06:47:40;;;;;;;10.05;1.10;;;;;;;;;;5011956;28;20656;-60
2022/01/20 06:50:08;;;;;;;7.43;1.73;;;;;;;;;;5039498;28;20344;-61
2022/01/20 06:52:35;;;;;;;12.32;1.25;;;;;;;;;;5047059;28;20046;-61
2022/01/20 06:58:39;;;;;;;7.47;2.38;;;;;;;;;;5044461;28;20533;-60
2022/01/20 07:01:07;;;;;;;10.75;1.90;;;;;;;;;;5046284;28;20036;-61
2022/01/20 07:03:35;;;;;;;9.85;1.83;;;;;;;;;;5020518;28;20467;-60
2022/01/20 07:06:01;;;;;;;9.05;2.90;;;;;;;;;;5037658;28;21872;-60
2022/01/20 07:08:27;;;;;;;9.93;1.40;;;;;;;;;;5013718;28;20017;-60
2022/01/20 07:10:52;;;;;;;10.57;2.28;;;;;;;;;;5027270;28;20475;-59
2022/01/20 07:13:17;;;;;;;15.27;1.70;;;;;;;;;;5028296;28;20077;-59
2022/01/20 07:15:45;;;;;;;9.25;1.17;;;;;;;;;;5037874;28;20049;-61
2022/01/20 07:18:11;;;;;;;9.25;0.63;;;;;;;;;;5028168;28;20514;-59
2022/01/20 07:20:38;;;;;;;10.23;1.08;;;;;;;;;;5042438;28;20028;-60
2022/01/20 07:23:09;;;;;;;4.35;1.05;;;;;;;;;;5043767;28;20033;-60
2022/01/20 07:29:09;;;;;;;8.38;0.90;;;;;;;;;;5044706;28;20081;-60
2022/01/20 07:31:38;;;;;;;11.90;1.30;;;;;;;;;;5001250;28;20537;-60
2022/01/20 07:34:06;;;;;;;10.13;1.42;;;;;;;;;;5018172;28;20805;-60
2022/01/20 07:36:33;;;;;;;11.25;2.65;;;;;;;;;;5043130;28;20046;-60
2022/01/20 07:38:59;;;;;;;17.02;2.47;;;;;;;;;;5023050;28;20123;-60
2022/01/20 07:41:27;;;;;;;7.55;2.20;;;;;;;;;;5027041;28;20024;-59
2022/01/20 07:43:55;;;;;;;8.20;1.27;;;;;;;;;;5022762;28;20037;-60
2022/01/20 07:46:25;;;;;;;8.05;1.98;;;;;;;;;;5027670;28;20056;-60
2022/01/20 07:48:55;;;;;;;12.70;1.50;;;;;;;;;;5046732;28;20128;-61
2022/01/20 07:51:23;;;;;;;9.23;1.25;;;;;;;;;;5028486;28;20037;-60
2022/01/20 07:53:48;;;;;;;6.63;0.98;;;;;;;;;;5028302;28;20077;-61
2022/01/20 07:56:16;;;;;;;17.33;2.20;;;;;;;;;;5047341;28;20074;-61
2022/01/20 07:58:42;;;;;;;14.45;2.33;;;;;;;;;;5022437;28;20539;-60
2022/01/20 08:01:08;;;;;;;5.18;1.75;;;;;;;;;;5048126;28;20154;-60
2022/01/20 08:03:39;;;;;;;9.63;1.27;;;;;;;;;;5050276;28;20032;-60
2022/01/20 08:06:09;;;;;;;14.95;2.30;;;;;;;;;;5046333;28;20070;-60
2022/01/20 08:08:34;;;;;;;11.38;1.38;;;;;;;;;;5009083;28;20119;-60
2022/01/20 08:11:00;;;;;;;14.82;1.83;;;;;;;;;;5018198;28;20202;-61
2022/01/20 08:13:28;;;;;;;17.40;2.75;;;;;;;;;;5013391;28;20460;-60
2022/01/20 08:15:53;;;;;;;20.00;2.25;;;;;;;;;;5048311;28;20482;-59
2022/01/20 08:18:18;;;;;;;16.65;2.08;;;;;;;;;;5005179;28;20062;-59
2022/01/20 08:20:44;;;;;;;14.60;1.33;;;;;;;;;;5025942;28;20753;-61
2022/01/20 08:23:12;;;;;;;12.48;2.42;;;;;;;;;;5030504;28;20542;-60
2022/01/20 08:25:40;;;;;;;18.15;1.42;;;;;;;;;;5032254;28;20575;-59
2022/01/20 08:28:08;;;;;;;8.52;1.40;;;;;;;;;;5035720;28;20036;-60
2022/01/20 08:30:38;;;;;;;18.02;2.55;;;;;;;;;;5052653;28;20090;-59
2022/01/20 08:33:10;;;;;;;13.88;1.30;;;;;;;;;;5049557;28;20080;-60
2022/01/20 08:35:36;;;;;;;13.05;1.75;;;;;;;;;;5034138;28;20547;-60
2022/01/20 08:38:06;;;;;;;14.05;2.67;;;;;;;;;;5028728;28;20048;-60
2022/01/20 08:40:31;;;;;;;13.95;1.30;;;;;;;;;;5000679;28;20036;-60
2022/01/20 08:42:57;;;;;;;7.60;1.77;;;;;;;;;;5030938;28;20040;-62
2022/01/20 08:45:24;;;;;;;4.90;1.23;;;;;;;;;;5024951;28;20043;-60
2022/01/20 08:47:52;;;;;;;12.02;1.05;;;;;;;;;;5034463;28;22274;-61
2022/01/20 08:50:18;;;;;;;3.80;0.80;;;;;;;;;;5048151;28;20658;-60
2022/01/20 08:52:43;;;;;;;5.18;0.88;;;;;;;;;;5022010;28;20033;-60
2022/01/20 08:55:14;;;;;;;1.70;0.50;;;;;;;;;;5030371;28;20033;-61
2022/01/20 08:57:39;;;;;;;8.05;1.00;;;;;;;;;;5036618;28;20112;-60
2022/01/20 09:00:06;;;;;;;13.00;0.82;;;;;;;;;;5048161;28;20028;-59
2022/01/20 09:02:32;;;;;;;6.88;1.33;;;;;;;;;;5051266;28;20040;-60
2022/01/20 09:04:59;;;;;;;4.32;1.02;;;;;;;;;;5049710;28;20129;-60
2022/01/20 09:07:25;;;;;;;9.13;0.85;;;;;;;;;;5029827;28;20116;-60
2022/01/20 09:09:55;;;;;;;6.32;0.73;;;;;;;;;;5031228;28;20398;-60
2022/01/20 09:17:45;;;;;;;8.13;1.27;;;;;;;;;;5049593;28;20089;-60
2022/01/20 09:20:13;;;;;;;7.07;1.05;;;;;;;;;;5033790;28;20029;-60
2022/01/20 09:22:38;;;;;;;12.93;1.42;;;;;;;;;;5049907;28;20089;-61
2022/01/20 09:25:05;;;;;;;10.50;1.13;;;;;;;;;;5047465;28;20033;-60
2022/01/20 09:27:30;;;;;;;21.75;1.10;;;;;;;;;;5029475;28;20043;-59
2022/01/20 09:30:02;;;;;;;3.60;0.60;;;;;;;;;;5023293;28;20464;-60
2022/01/20 09:32:30;;;;;;;9.80;1.05;;;;;;;;;;5047815;28;20056;-59
2022/01/20 09:34:56;;;;;;;10.90;1.15;;;;;;;;;;5047172;28;20064;-59
2022/01/20 09:37:22;;;;;;;12.20;1.63;;;;;;;;;;5046166;28;20091;-60
2022/01/20 09:39:53;;;;;;;10.52;1.20;;;;;;;;;;5047387;28;20078;-61
2022/01/20 09:42:18;;;;;;;11.38;1.55;;;;;;;;;;5047638;28;20731;-62
2022/01/20 09:44:47;;;;;;;9.60;1.75;;;;;;;;;;5012784;28;20097;-61
2022/01/20 09:47:15;;;;;;;15.52;1.30;;;;;;;;;;5036805;28;20159;-61
2022/01/20 09:49:43;;;;;;;7.45;1.38;;;;;;;;;;5030487;28;20029;-59
2022/01/20 09:52:12;;;;;;;13.00;2.20;;;;;;;;;;5021512;28;20029;-61
2022/01/20 09:54:38;;;;;;;8.35;1.33;;;;;;;;;;5000076;28;20036;-61
2022/01/20 09:57:04;;;;;;;20.05;2.28;;;;;;;;;;5029915;28;21825;-60
2022/01/20 09:59:31;;;;;;;11.73;1.77;;;;;;;;;;5045684;28;20031;-60
2022/01/20 10:01:58;;;;;;;14.07;1.38;;;;;;;;;;5026730;28;20028;-60
2022/01/20 10:04:28;;;;;;;12.82;1.77;;;;;;;;;;5048015;28;20039;-60
2022/01/20 10:07:01;;;;;;;16.75;1.63;;;;;;;;;;5019007;28;20036;-63
2022/01/20 10:09:33;;;;;;;;;;;;;;;;;;5029752;28;20068;-61
2022/01/20 10:12:04;;;;;;;6.80;1.63;;;;;;;;;;5045501;28;20046;-63
2022/01/20 10:14:41;;;;;;;6.50;1.33;;;;;;;;;;5046611;28;20027;-62
2022/01/20 10:17:17;;;;;;;7.32;1.58;;;;;;;;;;5045460;28;20139;-62
2022/01/20 10:19:43;;;;;;;11.13;1.20;;;;;;;;;;5046543;28;20048;-61
2022/01/20 10:22:21;;;;;;;8.55;0.90;;;;;;;;;;5028575;28;22189;-61
2022/01/20 10:25:17;;;;;;;8.15;1.17;;;;;;;;;;5020688;28;20108;-61
2022/01/20 10:27:57;;;;;;;15.35;1.77;;;;;;;;;;5016510;28;20054;-62
2022/01/20 10:30:24;;;;;;;10.27;1.17;;;;;;;;;;5044810;28;21972;-60
2022/01/20 10:32:54;;;;;;;14.68;1.67;;;;;;;;;;5045487;28;20055;-60
2022/01/20 10:35:27;;;;;;;8.98;2.08;;;;;;;;;;5026530;28;20041;-63
2022/01/20 10:38:09;;;;;;;12.80;2.03;;;;;;;;;;5026776;28;20033;-62
2022/01/20 10:40:59;;;;;;;11.63;1.38;;;;;;;;;;4999508;28;84094;-63
2022/01/20 10:43:31;;;;;;;3.78;1.13;;;;;;;;;;4955578;28;20035;-60
2022/01/20 10:46:02;;;;;;;7.20;0.82;;;;;;;;;;4956776;28;20065;-61
2022/01/20 10:48:30;;;;;;;8.40;1.23;;;;;;;;;;4957385;28;20644;-60
2022/01/20 10:50:58;;;;;;;13.73;1.20;;;;;;;;;;4955811;28;20240;-61
2022/01/20 10:53:24;;;;;;;13.35;2.47;;;;;;;;;;4943943;28;20042;-60
2022/01/20 10:55:50;;;;;;;7.57;1.35;;;;;;;;;;4958063;28;20105;-61
2022/01/20 10:58:22;;;;;;;4.30;2.08;;;;;;;;;;4956262;28;20030;-61
2022/01/20 11:00:53;;;;;;;11.98;1.60;;;;;;;;;;4955240;28;20439;-60
2022/01/20 11:03:19;;;;;;;15.77;2.30;;;;;;;;;;4957795;28;20117;-60
2022/01/20 11:05:50;;;;;;;20.65;1.90;;;;;;;;;;4972726;28;20058;-62
2022/01/20 11:08:18;;;;;;;40.67;3.40;;;;;;;;;;4957655;28;20089;-58
2022/01/20 11:10:46;;;;;;;14.45;2.08;;;;;;;;;;4956606;28;20121;-60
2022/01/20 11:16:28;;;;;;;8.70;1.50;;;;;;;;;;4957264;28;20594;-59
2022/01/20 11:18:54;;;;;;;15.48;1.38;;;;;;;;;;4954145;28;20088;-59
2022/01/20 11:21:28;;;;;;;17.80;2.15;;;;;;;;;;4945106;28;20426;-60
2022/01/20 11:23:56;;;;;;;6.90;1.83;;;;;;;;;;4957869;28;20442;-60
2022/01/20 11:26:22;;;;;;;12.48;1.45;;;;;;;;;;4962518;28;20120;-60
2022/01/20 11:29:02;;;;;;;10.48;1.88;;;;;;;;;;4956683;28;20041;-60
2022/01/20 11:31:33;;;;;;;15.32;2.53;;;;;;;;;;4961931;28;20127;-60
2022/01/20 11:33:59;;;;;;;11.30;1.80;;;;;;;;;;4957727;28;20046;-59
2022/01/20 11:36:26;;;;;;;20.70;2.75;;;;;;;;;;4970586;28;20065;-59
2022/01/20 11:38:59;;;;;;;19.23;2.25;;;;;;;;;;4960176;28;20029;-59
2022/01/20 11:41:40;;;;;;;11.13;1.50;;;;;;;;;;4958672;28;20195;-61
2022/01/20 11:44:26;;;;;;;9.93;1.77;;;;;;;;;;4958288;28;20034;-60
2022/01/20 11:47:03;;;;;;;9.07;1.17;;;;;;;;;;4962787;28;20057;-60
2022/01/20 11:49:34;;;;;;;11.10;1.73;;;;;;;;;;4960652;28;20113;-59
2022/01/20 11:52:02;;;;;;;13.18;1.75;;;;;;;;;;4956387;28;20040;-59
2022/01/20 11:54:28;;;;;;;9.73;0.98;;;;;;;;;;4957322;28;20034;-60
2022/01/20 11:57:04;;;;;;;7.32;1.45;;;;;;;;;;4976652;28;20038;-60
2022/01/20 11:59:43;;;;;;;12.05;1.65;;;;;;;;;;4956662;28;20038;-58
2022/01/20 12:02:09;;;;;;;7.13;1.30;;;;;;;;;;4971179;28;20881;-59
2022/01/20 12:04:39;;;;;;;14.18;2.00;;;;;;;;;;4976118;28;20104;-60
2022/01/20 12:07:11;;;;;;;14.05;1.65;;;;;;;;;;4954379;28;20042;-59
2022/01/20 12:09:41;;;;;;;17.55;2.45;;;;;;;;;;4961803;28;20443;-60
2022/01/20 12:12:25;;;;;;;9.98;1.58;;;;;;;;;;4957074;28;20038;-60
2022/01/20 12:14:52;;;;;;;14.10;1.63;;;;;;;;;;4975459;28;20033;-59
2022/01/20 12:17:21;;;;;;;11.05;1.73;;;;;;;;;;4977255;28;20057;-60
2022/01/20 12:19:53;;;;;;;13.43;1.58;;;;;;;;;;4976456;28;20037;-58
2022/01/20 12:22:19;;;;;;;12.65;1.40;;;;;;;;;;4976254;28;20062;-59
2022/01/20 12:24:55;;;;;;;7.78;1.40;;;;;;;;;;4977092;28;20038;-59
2022/01/20 12:27:26;;;;;;;13.32;2.13;;;;;;;;;;4962541;28;20037;-61
2022/01/20 12:29:54;;;;;;;11.38;1.85;;;;;;;;;;4978486;28;20038;-59
2022/01/20 12:32:24;;;;;;;13.30;2.70;;;;;;;;;;4976460;28;20080;-59
2022/01/20 12:34:57;;;;;;;13.25;1.70;;;;;;;;;;4944390;28;20075;-58
2022/01/20 12:37:31;;;;;;;10.45;1.90;;;;;;;;;;4971934;28;20433;-60
2022/01/20 12:39:59;;;;;;;14.88;1.85;;;;;;;;;;4948354;28;20030;-60
2022/01/20 12:42:34;;;;;;;15.68;2.33;;;;;;;;;;4942364;28;20034;-60
2022/01/20 12:47:49;;;;;;;9.20;1.60;;;;;;;;;;4978904;28;20083;-61
2022/01/20 12:50:17;;;;;;;18.45;1.58;;;;;;;;;;4965753;28;20037;-60
2022/01/20 12:52:46;;;;;;;13.00;2.03;;;;;;;;;;4960793;28;20030;-61
2022/01/20 12:55:12;;;;;;;11.25;2.47;;;;;;;;;;4978633;28;20045;-62
2022/01/20 12:57:39;;;;;;;11.55;2.03;;;;;;;;;;4945438;28;20125;-60
2022/01/20 13:00:12;;;;;;;14.65;2.28;;;;;;;;;;4979959;28;20038;-60
2022/01/20 13:02:38;;;;;;;13.45;2.05;;;;;;;;;;4948138;28;20647;-61
2022/01/20 13:05:04;;;;;;;8.85;2.08;;;;;;;;;;4947571;28;20040;-61
2022/01/20 13:07:33;;;;;;;8.38;1.17;;;;;;;;;;4961833;28;20038;-61
2022/01/20 13:10:04;;;;;;;13.82;1.05;;;;;;;;;;4960447;28;20149;-61
2022/01/20 13:12:39;;;;;;;2.72;0.68;;;;;;;;;;4964446;28;20034;-60
2022/01/20 13:15:27;;;;;;;4.43;0.73;;;;;;;;;;4966531;28;20076;-62
2022/01/20 13:18:06;;;;;;;3.95;0.52;;;;;;;;;;4962634;28;20030;-60
2022/01/20 13:20:40;;;;;;;4.20;0.63;;;;;;;;;;4982021;28;20030;-60
2022/01/20 13:23:54;;;;;;;11.00;1.13;;;;;;;;;;4960798;28;20042;-60
2022/01/20 13:26:06;;;;;;;5.13;0.65;;;;;;;;;;4979647;28;20434;-61
2022/01/20 13:28:33;;;;;;;10.52;1.08;;;;;;;;;;4977921;28;20515;-61
2022/01/20 13:31:17;;;;;;;22.23;1.95;;;;;;;;;;4956005;28;20079;-61
2022/01/20 13:33:43;;;;;;;4.47;1.30;;;;;;;;;;4978918;28;20050;-61
2022/01/20 13:36:09;;;;;;;13.52;1.50;;;;;;;;;;4977832;28;20044;-62
2022/01/20 13:38:45;;;;;;;10.23;0.98;;;;;;;;;;4979635;28;20030;-61
2022/01/20 13:41:15;;;;;;;10.52;1.58;;;;;;;;;;4979649;28;20018;-61
2022/01/20 13:46:36;;;;;;;12.07;1.08;;;;;;;;;;4978440;28;20097;-61
2022/01/20 13:49:10;;;;;;;8.48;1.35;;;;;;;;;;4967812;28;20101;-61
2022/01/20 13:51:38;;;;;;;13.32;1.23;;;;;;;;;;4977293;28;20406;-62
2022/01/20 13:54:05;;;;;;;10.15;1.23;;;;;;;;;;4978545;28;20474;-61
2022/01/20 13:56:35;;;;;;;16.88;1.95;;;;;;;;;;4976918;28;20058;-61
2022/01/20 13:59:07;;;;;;;14.88;1.50;;;;;;;;;;4948253;28;21096;-60
2022/01/20 14:01:33;;;;;;;11.98;1.83;;;;;;;;;;4979292;28;20511;-60
2022/01/20 14:04:02;;;;;;;20.42;2.00;;;;;;;;;;4975536;28;20499;-59
2022/01/20 14:06:32;;;;;;;16.75;2.30;;;;;;;;;;4977293;28;20057;-60
2022/01/20 14:09:00;;;;;;;10.20;1.95;;;;;;;;;;4979350;28;20029;-62
2022/01/20 14:11:25;;;;;;;16.05;1.73;;;;;;;;;;4963035;28;20052;-60
2022/01/20 14:13:50;;;;;;;20.15;2.13;;;;;;;;;;4958243;28;20022;-60
2022/01/20 14:16:18;;;;;;;8.82;1.70;;;;;;;;;;4976884;28;20026;-62
2022/01/20 14:18:45;;;;;;;6.50;1.50;;;;;;;;;;4979127;28;20029;-61
2022/01/20 14:21:15;;;;;;;8.52;1.30;;;;;;;;;;4959248;28;20073;-61
2022/01/20 14:23:43;;;;;;;16.80;1.83;;;;;;;;;;4974086;28;20057;-60
2022/01/20 14:26:12;;;;;;;14.30;1.67;;;;;;;;;;4961948;28;20045;-60
2022/01/20 14:28:37;;;;;;;4.22;1.20;;;;;;;;;;4962525;28;20045;-60
2022/01/20 14:31:05;;;;;;;7.30;1.17;;;;;;;;;;4976575;28;21823;-59
2022/01/20 14:33:35;;;;;;;8.18;1.95;;;;;;;;;;4975361;28;20061;-61
2022/01/20 14:36:05;;;;;;;14.02;1.50;;;;;;;;;;4970847;28;20046;-61
2022/01/20 14:38:33;;;;;;;14.18;1.55;;;;;;;;;;4947751;28;20038;-58
2022/01/20 14:44:36;;;;;;;9.13;1.10;;;;;;;;;;4975981;28;21912;-60
2022/01/20 14:47:06;;;;;;;11.75;2.28;;;;;;;;;;4972230;28;20025;-61
2022/01/20 14:49:34;;;;;;;10.40;2.05;;;;;;;;;;4962143;28;20046;-60
2022/01/20 14:52:03;;;;;;;14.55;1.75;;;;;;;;;;4958469;28;20133;-61
2022/01/20 14:54:35;;;;;;;9.30;1.83;;;;;;;;;;4963742;28;20851;-61
2022/01/20 14:57:01;;;;;;;12.05;2.15;;;;;;;;;;4975027;28;20041;-61
2022/01/20 14:59:33;;;;;;;14.35;1.70;;;;;;;;;;4959168;28;20034;-61
2022/01/20 15:02:00;;;;;;;11.40;2.45;;;;;;;;;;4963922;28;20120;-62
2022/01/20 15:04:29;;;;;;;19.38;2.00;;;;;;;;;;4964151;28;20525;-61
2022/01/20 15:06:59;;;;;;;9.95;2.30;;;;;;;;;;4976947;28;20038;-62
2022/01/20 15:09:29;;;;;;;17.92;2.08;;;;;;;;;;4942754;28;20049;-62
2022/01/20 15:11:57;;;;;;;16.95;2.35;;;;;;;;;;4962173;28;20037;-62
2022/01/20 15:14:22;;;;;;;11.50;1.70;;;;;;;;;;4976008;28;20080;-61
2022/01/20 15:16:49;;;;;;;7.32;1.25;;;;;;;;;;4976303;28;20038;-62
2022/01/20 15:19:15;;;;;;;7.63;1.80;;;;;;;;;;4977594;28;20572;-63
2022/01/20 15:24:36;;;;;;;8.98;1.48;;;;;;;;;;5015850;23;20088;-61
2022/01/20 15:27:04;;;;;;;7.82;1.65;;;;;;;;;;4969745;28;20212;-62
2022/01/20 15:29:37;;;;;;;3.63;1.00;;;;;;;;;;4980688;28;20046;-61
2022/01/20 15:32:07;;;;;;;22.70;1.67;;;;;;;;;;4951306;28;20029;-63
2022/01/20 15:34:38;;;;;;;9.55;1.23;;;;;;;;;;4961467;28;20038;-62
2022/01/20 15:37:08;;;;;;;13.90;1.90;;;;;;;;;;4976951;28;20642;-61
2022/01/20 15:39:34;;;;;;;11.93;1.83;;;;;;;;;;4978357;28;20036;-62
2022/01/20 15:42:02;;;;;;;16.52;1.65;;;;;;;;;;4979780;28;20033;-61
2022/01/20 15:44:30;;;;;;;15.20;2.50;;;;;;;;;;4961442;28;22338;-61
2022/01/20 15:46:55;;;;;;;10.80;1.77;;;;;;;;;;4978231;28;20044;-61
2022/01/20 15:49:24;;;;;;;11.93;1.80;;;;;;;;;;4978415;28;20040;-59
2022/01/20 15:51:49;;;;;;;18.15;1.75;;;;;;;;;;4977387;28;20038;-60
2022/01/20 15:54:15;;;;;;;12.93;1.50;;;;;;;;;;4963204;28;20050;-60
2022/01/20 15:56:40;;;;;;;23.33;2.55;;;;;;;;;;4976686;28;20528;-59
2022/01/20 15:59:06;;;;;;;10.95;1.77;;;;;;;;;;4978904;28;20042;-60
2022/01/20 16:01:40;;;;;;;10.27;1.20;;;;;;;;;;4977254;28;20505;-60
2022/01/20 16:04:14;;;;;;;9.43;1.38;;;;;;;;;;4977777;28;20085;-60
2022/01/20 16:06:39;;;;;;;16.27;2.40;;;;;;;;;;4976283;28;20112;-61
2022/01/20 16:09:07;;;;;;;5.10;1.13;;;;;;;;;;4978135;28;20040;-59
2022/01/20 16:11:35;;;;;;;4.50;0.93;;;;;;;;;;4977634;28;20030;-59
2022/01/20 16:14:04;;;;;;;7.28;0.65;;;;;;;;;;4963257;28;20030;-59
2022/01/20 16:16:34;;;;;;;10.65;1.00;;;;;;;;;;4981450;28;20064;-59
2022/01/20 16:19:07;;;;;;;5.00;1.77;;;;;;;;;;4977246;28;20034;-59
2022/01/20 16:21:43;;;;;;;7.93;1.17;;;;;;;;;;4971996;28;20026;-58
2022/01/20 16:24:09;;;;;;;5.57;1.33;;;;;;;;;;4969210;28;20075;-59
2022/01/20 16:26:40;;;;;;;10.45;1.63;;;;;;;;;;4979245;28;20069;-59